sensor_id;sensor_type;location;lat;lon;timestamp;P1;durP1;ratioP1;P2;durP2;ratioP2
57093;SDS011;42970;50.996;3.706;2023-09-12T00:02:02;30.77;;;16.13;;
57093;SDS011;42970;50.996;3.706;2023-09-12T00:04:28;24.67;;;12.27;;
57093;SDS011;42970;50.996;3.706;2023-09-12T00:06:53;26.77;;;14.13;;
57093;SDS011;42970;50.996;3.706;2023-09-12T00:09:19;33.60;;;17.48;;
57093;SDS011;42970;50.996;3.706;2023-09-12T00:11:44;31.92;;;15.73;;
57093;SDS011;42970;50.996;3.706;2023-09-12T00:14:09;39.10;;;18.08;;
57093;SDS011;42970;50.996;3.706;2023-09-12T00:16:40;30.25;;;15.98;;
57093;SDS011;42970;50.996;3.706;2023-09-12T00:19:06;36.10;;;16.02;;
57093;SDS011;42970;50.996;3.706;2023-09-12T00:21:31;34.83;;;16.67;;
57093;SDS011;42970;50.996;3.706;2023-09-12T00:23:56;32.70;;;17.38;;
57093;SDS011;42970;50.996;3.706;2023-09-12T00:26:24;33.90;;;15.35;;
57093;SDS011;42970;50.996;3.706;2023-09-12T00:28:49;37.63;;;17.08;;
57093;SDS011;42970;50.996;3.706;2023-09-12T00:31:15;30.60;;;16.20;;
57093;SDS011;42970;50.996;3.706;2023-09-12T00:33:40;30.73;;;15.40;;
57093;SDS011;42970;50.996;3.706;2023-09-12T00:36:06;30.73;;;16.27;;
57093;SDS011;42970;50.996;3.706;2023-09-12T00:38:31;31.85;;;16.27;;
57093;SDS011;42970;50.996;3.706;2023-09-12T00:40:57;32.53;;;16.83;;
57093;SDS011;42970;50.996;3.706;2023-09-12T00:43:22;34.28;;;16.02;;
57093;SDS011;42970;50.996;3.706;2023-09-12T00:45:48;35.53;;;17.08;;
57093;SDS011;42970;50.996;3.706;2023-09-12T00:48:13;43.55;;;18.35;;
57093;SDS011;42970;50.996;3.706;2023-09-12T00:50:40;32.72;;;17.45;;
57093;SDS011;42970;50.996;3.706;2023-09-12T00:53:06;37.58;;;17.75;;
57093;SDS011;42970;50.996;3.706;2023-09-12T00:55:33;31.42;;;17.50;;
57093;SDS011;42970;50.996;3.706;2023-09-12T00:58:01;36.58;;;17.83;;
57093;SDS011;42970;50.996;3.706;2023-09-12T01:00:27;37.42;;;18.13;;
57093;SDS011;42970;50.996;3.706;2023-09-12T01:02:53;46.00;;;19.00;;
57093;SDS011;42970;50.996;3.706;2023-09-12T01:05:19;37.78;;;20.02;;
57093;SDS011;42970;50.996;3.706;2023-09-12T01:07:46;40.00;;;19.48;;
57093;SDS011;42970;50.996;3.706;2023-09-12T01:10:12;58.33;;;20.08;;
57093;SDS011;42970;50.996;3.706;2023-09-12T01:12:37;41.08;;;18.80;;
57093;SDS011;42970;50.996;3.706;2023-09-12T01:15:03;42.28;;;18.83;;
57093;SDS011;42970;50.996;3.706;2023-09-12T01:17:41;58.95;;;20.63;;
57093;SDS011;42970;50.996;3.706;2023-09-12T01:21:01;42.13;;;19.25;;
57093;SDS011;42970;50.996;3.706;2023-09-12T01:25:39;45.38;;;19.17;;
57093;SDS011;42970;50.996;3.706;2023-09-12T01:28:18;40.38;;;19.13;;
57093;SDS011;42970;50.996;3.706;2023-09-12T01:30:48;38.50;;;18.42;;
57093;SDS011;42970;50.996;3.706;2023-09-12T01:33:15;34.10;;;17.88;;
57093;SDS011;42970;50.996;3.706;2023-09-12T01:35:41;39.90;;;17.65;;
57093;SDS011;42970;50.996;3.706;2023-09-12T01:38:06;39.78;;;17.90;;
57093;SDS011;42970;50.996;3.706;2023-09-12T01:40:40;44.88;;;17.92;;
57093;SDS011;42970;50.996;3.706;2023-09-12T01:43:11;45.13;;;19.23;;
57093;SDS011;42970;50.996;3.706;2023-09-12T01:45:38;32.42;;;18.33;;
57093;SDS011;42970;50.996;3.706;2023-09-12T01:48:04;36.45;;;18.90;;
57093;SDS011;42970;50.996;3.706;2023-09-12T01:50:31;37.47;;;18.35;;
57093;SDS011;42970;50.996;3.706;2023-09-12T01:52:58;48.28;;;19.20;;
57093;SDS011;42970;50.996;3.706;2023-09-12T01:55:24;39.67;;;19.15;;
57093;SDS011;42970;50.996;3.706;2023-09-12T01:57:50;48.78;;;20.52;;
57093;SDS011;42970;50.996;3.706;2023-09-12T02:00:17;44.00;;;19.42;;
57093;SDS011;42970;50.996;3.706;2023-09-12T02:02:44;39.80;;;20.10;;
57093;SDS011;42970;50.996;3.706;2023-09-12T02:05:22;42.63;;;19.30;;
57093;SDS011;42970;50.996;3.706;2023-09-12T02:07:48;40.88;;;18.15;;
57093;SDS011;42970;50.996;3.706;2023-09-12T02:10:14;45.25;;;18.77;;
57093;SDS011;42970;50.996;3.706;2023-09-12T02:12:40;43.85;;;17.60;;
57093;SDS011;42970;50.996;3.706;2023-09-12T02:15:06;39.40;;;18.63;;
57093;SDS011;42970;50.996;3.706;2023-09-12T02:17:32;38.72;;;17.58;;
57093;SDS011;42970;50.996;3.706;2023-09-12T02:19:58;37.35;;;18.02;;
57093;SDS011;42970;50.996;3.706;2023-09-12T02:22:23;39.55;;;18.20;;
57093;SDS011;42970;50.996;3.706;2023-09-12T02:24:49;37.25;;;18.75;;
57093;SDS011;42970;50.996;3.706;2023-09-12T02:27:14;34.28;;;18.13;;
57093;SDS011;42970;50.996;3.706;2023-09-12T02:29:40;37.25;;;18.70;;
57093;SDS011;42970;50.996;3.706;2023-09-12T02:32:06;42.70;;;19.30;;
57093;SDS011;42970;50.996;3.706;2023-09-12T02:34:32;38.70;;;19.63;;
57093;SDS011;42970;50.996;3.706;2023-09-12T02:36:58;42.42;;;19.05;;
57093;SDS011;42970;50.996;3.706;2023-09-12T02:39:23;43.03;;;20.55;;
57093;SDS011;42970;50.996;3.706;2023-09-12T02:41:49;46.30;;;20.48;;
57093;SDS011;42970;50.996;3.706;2023-09-12T02:44:14;38.90;;;19.83;;
57093;SDS011;42970;50.996;3.706;2023-09-12T02:49:05;44.22;;;20.23;;
57093;SDS011;42970;50.996;3.706;2023-09-12T02:51:31;48.90;;;20.52;;
57093;SDS011;42970;50.996;3.706;2023-09-12T02:53:56;41.08;;;19.63;;
57093;SDS011;42970;50.996;3.706;2023-09-12T02:56:22;38.50;;;19.75;;
57093;SDS011;42970;50.996;3.706;2023-09-12T02:58:47;43.58;;;20.95;;
57093;SDS011;42970;50.996;3.706;2023-09-12T03:01:14;46.20;;;20.70;;
57093;SDS011;42970;50.996;3.706;2023-09-12T03:03:45;41.63;;;20.25;;
57093;SDS011;42970;50.996;3.706;2023-09-12T03:06:12;48.90;;;20.70;;
57093;SDS011;42970;50.996;3.706;2023-09-12T03:08:39;40.15;;;18.98;;
57093;SDS011;42970;50.996;3.706;2023-09-12T03:11:04;39.80;;;18.80;;
57093;SDS011;42970;50.996;3.706;2023-09-12T03:13:32;43.15;;;19.55;;
57093;SDS011;42970;50.996;3.706;2023-09-12T03:15:58;42.40;;;19.83;;
57093;SDS011;42970;50.996;3.706;2023-09-12T03:18:23;40.78;;;20.00;;
57093;SDS011;42970;50.996;3.706;2023-09-12T03:20:49;45.28;;;20.98;;
57093;SDS011;42970;50.996;3.706;2023-09-12T03:23:14;50.13;;;19.67;;
57093;SDS011;42970;50.996;3.706;2023-09-12T03:25:40;47.80;;;20.70;;
57093;SDS011;42970;50.996;3.706;2023-09-12T03:28:05;38.38;;;18.50;;
57093;SDS011;42970;50.996;3.706;2023-09-12T03:30:35;38.45;;;19.83;;
57093;SDS011;42970;50.996;3.706;2023-09-12T03:33:01;35.38;;;18.95;;
57093;SDS011;42970;50.996;3.706;2023-09-12T03:35:28;37.35;;;19.17;;
57093;SDS011;42970;50.996;3.706;2023-09-12T03:37:54;42.03;;;19.38;;
57093;SDS011;42970;50.996;3.706;2023-09-12T03:40:19;34.92;;;18.65;;
57093;SDS011;42970;50.996;3.706;2023-09-12T03:42:45;40.45;;;20.13;;
57093;SDS011;42970;50.996;3.706;2023-09-12T03:45:10;42.45;;;20.92;;
57093;SDS011;42970;50.996;3.706;2023-09-12T03:47:36;46.20;;;20.90;;
57093;SDS011;42970;50.996;3.706;2023-09-12T03:50:02;38.40;;;20.67;;
57093;SDS011;42970;50.996;3.706;2023-09-12T03:52:29;44.70;;;19.15;;
57093;SDS011;42970;50.996;3.706;2023-09-12T03:54:54;45.80;;;20.85;;
57093;SDS011;42970;50.996;3.706;2023-09-12T03:57:20;46.08;;;21.23;;
57093;SDS011;42970;50.996;3.706;2023-09-12T03:59:45;45.67;;;20.65;;
57093;SDS011;42970;50.996;3.706;2023-09-12T04:02:12;46.75;;;20.95;;
57093;SDS011;42970;50.996;3.706;2023-09-12T04:04:37;51.70;;;21.25;;
57093;SDS011;42970;50.996;3.706;2023-09-12T04:07:03;56.63;;;20.77;;
57093;SDS011;42970;50.996;3.706;2023-09-12T04:09:29;47.28;;;21.73;;
57093;SDS011;42970;50.996;3.706;2023-09-12T04:11:55;46.47;;;22.38;;
57093;SDS011;42970;50.996;3.706;2023-09-12T04:14:20;42.70;;;20.85;;
57093;SDS011;42970;50.996;3.706;2023-09-12T04:16:46;40.17;;;19.50;;
57093;SDS011;42970;50.996;3.706;2023-09-12T04:19:13;47.35;;;20.92;;
57093;SDS011;42970;50.996;3.706;2023-09-12T04:21:39;42.05;;;20.02;;
57093;SDS011;42970;50.996;3.706;2023-09-12T04:45:55;37.40;;;18.25;;
57093;SDS011;42970;50.996;3.706;2023-09-12T04:48:21;38.80;;;19.05;;
57093;SDS011;42970;50.996;3.706;2023-09-12T04:50:46;43.20;;;19.88;;
57093;SDS011;42970;50.996;3.706;2023-09-12T04:53:12;43.47;;;19.40;;
57093;SDS011;42970;50.996;3.706;2023-09-12T04:55:37;35.22;;;18.52;;
57093;SDS011;42970;50.996;3.706;2023-09-12T04:58:04;34.60;;;17.80;;
57093;SDS011;42970;50.996;3.706;2023-09-12T05:00:30;35.85;;;17.65;;
57093;SDS011;42970;50.996;3.706;2023-09-12T05:02:56;36.13;;;19.63;;
57093;SDS011;42970;50.996;3.706;2023-09-12T05:05:21;36.13;;;18.25;;
57093;SDS011;42970;50.996;3.706;2023-09-12T05:07:47;41.42;;;19.27;;
57093;SDS011;42970;50.996;3.706;2023-09-12T05:10:12;48.25;;;20.50;;
57093;SDS011;42970;50.996;3.706;2023-09-12T05:12:38;43.38;;;19.58;;
57093;SDS011;42970;50.996;3.706;2023-09-12T05:24:45;50.70;;;22.02;;
57093;SDS011;42970;50.996;3.706;2023-09-12T05:27:11;57.78;;;22.65;;
57093;SDS011;42970;50.996;3.706;2023-09-12T05:29:37;63.53;;;24.60;;
57093;SDS011;42970;50.996;3.706;2023-09-12T05:32:02;73.28;;;25.33;;
57093;SDS011;42970;50.996;3.706;2023-09-12T05:34:29;64.20;;;24.53;;
57093;SDS011;42970;50.996;3.706;2023-09-12T05:36:54;71.57;;;26.13;;
57093;SDS011;42970;50.996;3.706;2023-09-12T05:39:21;66.13;;;26.73;;
57093;SDS011;42970;50.996;3.706;2023-09-12T05:41:47;73.68;;;27.30;;
57093;SDS011;42970;50.996;3.706;2023-09-12T05:44:12;69.63;;;26.63;;
57093;SDS011;42970;50.996;3.706;2023-09-12T05:46:42;66.97;;;25.63;;
57093;SDS011;42970;50.996;3.706;2023-09-12T05:49:09;63.58;;;24.40;;
57093;SDS011;42970;50.996;3.706;2023-09-12T05:51:35;73.55;;;27.08;;
57093;SDS011;42970;50.996;3.706;2023-09-12T05:54:00;64.10;;;25.98;;
57093;SDS011;42970;50.996;3.706;2023-09-12T05:56:26;62.70;;;25.17;;
57093;SDS011;42970;50.996;3.706;2023-09-12T05:58:53;78.55;;;26.58;;
57093;SDS011;42970;50.996;3.706;2023-09-12T06:01:18;73.85;;;29.27;;
57093;SDS011;42970;50.996;3.706;2023-09-12T06:03:44;89.03;;;28.20;;
57093;SDS011;42970;50.996;3.706;2023-09-12T06:06:09;72.78;;;27.58;;
57093;SDS011;42970;50.996;3.706;2023-09-12T06:08:34;66.88;;;27.30;;
57093;SDS011;42970;50.996;3.706;2023-09-12T06:11:00;62.13;;;26.00;;
57093;SDS011;42970;50.996;3.706;2023-09-12T06:13:25;66.28;;;24.98;;
57093;SDS011;42970;50.996;3.706;2023-09-12T06:15:51;61.42;;;23.35;;
57093;SDS011;42970;50.996;3.706;2023-09-12T06:18:16;57.65;;;24.63;;
57093;SDS011;42970;50.996;3.706;2023-09-12T06:20:43;66.80;;;24.65;;
57093;SDS011;42970;50.996;3.706;2023-09-12T06:23:08;73.70;;;25.40;;
57093;SDS011;42970;50.996;3.706;2023-09-12T06:25:35;60.42;;;25.38;;
57093;SDS011;42970;50.996;3.706;2023-09-12T06:28:00;72.10;;;25.95;;
57093;SDS011;42970;50.996;3.706;2023-09-12T06:30:26;67.57;;;27.08;;
57093;SDS011;42970;50.996;3.706;2023-09-12T06:32:51;61.33;;;25.75;;
57093;SDS011;42970;50.996;3.706;2023-09-12T06:35:16;68.80;;;24.48;;
57093;SDS011;42970;50.996;3.706;2023-09-12T06:37:42;61.88;;;25.85;;
57093;SDS011;42970;50.996;3.706;2023-09-12T06:40:09;70.13;;;27.40;;
57093;SDS011;42970;50.996;3.706;2023-09-12T06:42:35;70.88;;;26.45;;
57093;SDS011;42970;50.996;3.706;2023-09-12T06:45:00;62.53;;;26.10;;
57093;SDS011;42970;50.996;3.706;2023-09-12T06:47:25;68.97;;;25.33;;
57093;SDS011;42970;50.996;3.706;2023-09-12T06:49:51;70.35;;;25.58;;
57093;SDS011;42970;50.996;3.706;2023-09-12T06:52:16;63.22;;;25.70;;
57093;SDS011;42970;50.996;3.706;2023-09-12T06:54:42;75.78;;;28.20;;
57093;SDS011;42970;50.996;3.706;2023-09-12T06:57:07;76.10;;;28.83;;
57093;SDS011;42970;50.996;3.706;2023-09-12T06:59:32;67.38;;;28.45;;
57093;SDS011;42970;50.996;3.706;2023-09-12T07:01:58;77.38;;;28.00;;
57093;SDS011;42970;50.996;3.706;2023-09-12T07:04:23;73.30;;;28.58;;
57093;SDS011;42970;50.996;3.706;2023-09-12T07:06:49;71.63;;;27.92;;
57093;SDS011;42970;50.996;3.706;2023-09-12T07:09:16;75.57;;;27.95;;
57093;SDS011;42970;50.996;3.706;2023-09-12T07:11:42;78.90;;;28.65;;
57093;SDS011;42970;50.996;3.706;2023-09-12T07:14:10;72.80;;;27.15;;
57093;SDS011;42970;50.996;3.706;2023-09-12T07:16:36;62.38;;;25.27;;
57093;SDS011;42970;50.996;3.706;2023-09-12T07:19:02;62.90;;;27.45;;
57093;SDS011;42970;50.996;3.706;2023-09-12T07:21:28;65.88;;;25.40;;
57093;SDS011;42970;50.996;3.706;2023-09-12T07:23:54;65.95;;;27.05;;
57093;SDS011;42970;50.996;3.706;2023-09-12T07:26:20;78.20;;;27.83;;
57093;SDS011;42970;50.996;3.706;2023-09-12T07:28:46;77.22;;;28.23;;
57093;SDS011;42970;50.996;3.706;2023-09-12T07:31:11;79.78;;;29.55;;
57093;SDS011;42970;50.996;3.706;2023-09-12T07:33:36;66.70;;;25.92;;
57093;SDS011;42970;50.996;3.706;2023-09-12T07:36:02;70.90;;;26.52;;
57093;SDS011;42970;50.996;3.706;2023-09-12T07:38:28;71.38;;;27.85;;
57093;SDS011;42970;50.996;3.706;2023-09-12T07:40:54;71.10;;;27.40;;
57093;SDS011;42970;50.996;3.706;2023-09-12T07:43:20;63.53;;;23.98;;
57093;SDS011;42970;50.996;3.706;2023-09-12T07:45:46;67.40;;;25.77;;
57093;SDS011;42970;50.996;3.706;2023-09-12T07:48:11;68.88;;;23.60;;
57093;SDS011;42970;50.996;3.706;2023-09-12T07:50:37;63.13;;;26.45;;
57093;SDS011;42970;50.996;3.706;2023-09-12T07:53:06;71.78;;;27.63;;
57093;SDS011;42970;50.996;3.706;2023-09-12T07:55:32;70.57;;;27.65;;
57093;SDS011;42970;50.996;3.706;2023-09-12T07:58:10;89.88;;;30.90;;
57093;SDS011;42970;50.996;3.706;2023-09-12T08:00:36;79.93;;;29.33;;
57093;SDS011;42970;50.996;3.706;2023-09-12T08:03:02;71.35;;;27.00;;
57093;SDS011;42970;50.996;3.706;2023-09-12T08:05:27;69.28;;;25.77;;
57093;SDS011;42970;50.996;3.706;2023-09-12T08:07:52;71.82;;;27.50;;
57093;SDS011;42970;50.996;3.706;2023-09-12T08:10:18;77.32;;;27.38;;
57093;SDS011;42970;50.996;3.706;2023-09-12T08:12:44;76.45;;;28.58;;
57093;SDS011;42970;50.996;3.706;2023-09-12T08:15:09;72.03;;;26.63;;
57093;SDS011;42970;50.996;3.706;2023-09-12T08:17:35;57.72;;;24.35;;
57093;SDS011;42970;50.996;3.706;2023-09-12T08:20:00;55.05;;;24.25;;
57093;SDS011;42970;50.996;3.706;2023-09-12T08:22:26;61.53;;;24.30;;
57093;SDS011;42970;50.996;3.706;2023-09-12T08:24:53;57.80;;;23.52;;
57093;SDS011;42970;50.996;3.706;2023-09-12T08:27:18;60.33;;;22.80;;
57093;SDS011;42970;50.996;3.706;2023-09-12T08:29:43;67.32;;;22.90;;
57093;SDS011;42970;50.996;3.706;2023-09-12T08:32:11;52.28;;;22.17;;
57093;SDS011;42970;50.996;3.706;2023-09-12T08:34:37;55.30;;;23.10;;
57093;SDS011;42970;50.996;3.706;2023-09-12T08:37:02;61.75;;;23.75;;
57093;SDS011;42970;50.996;3.706;2023-09-12T08:39:36;57.03;;;22.38;;
57093;SDS011;42970;50.996;3.706;2023-09-12T08:42:06;58.15;;;24.02;;
57093;SDS011;42970;50.996;3.706;2023-09-12T08:44:34;59.58;;;24.00;;
57093;SDS011;42970;50.996;3.706;2023-09-12T08:47:00;52.70;;;23.02;;
57093;SDS011;42970;50.996;3.706;2023-09-12T08:49:26;66.68;;;23.60;;
57093;SDS011;42970;50.996;3.706;2023-09-12T08:51:53;62.70;;;23.77;;
57093;SDS011;42970;50.996;3.706;2023-09-12T08:54:19;58.33;;;23.35;;
57093;SDS011;42970;50.996;3.706;2023-09-12T08:56:44;53.42;;;22.33;;
57093;SDS011;42970;50.996;3.706;2023-09-12T08:59:10;52.08;;;21.42;;
57093;SDS011;42970;50.996;3.706;2023-09-12T09:01:36;50.92;;;22.92;;
57093;SDS011;42970;50.996;3.706;2023-09-12T09:04:03;52.08;;;22.50;;
57093;SDS011;42970;50.996;3.706;2023-09-12T09:06:30;63.42;;;24.02;;
57093;SDS011;42970;50.996;3.706;2023-09-12T09:09:05;59.25;;;23.38;;
57093;SDS011;42970;50.996;3.706;2023-09-12T09:11:33;59.70;;;26.10;;
57093;SDS011;42970;50.996;3.706;2023-09-12T09:14:00;61.10;;;26.92;;
57093;SDS011;42970;50.996;3.706;2023-09-12T09:16:28;61.50;;;23.92;;
57093;SDS011;42970;50.996;3.706;2023-09-12T09:21:21;59.03;;;24.08;;
57093;SDS011;42970;50.996;3.706;2023-09-12T09:23:54;52.25;;;23.65;;
57093;SDS011;42970;50.996;3.706;2023-09-12T09:26:20;66.18;;;23.45;;
57093;SDS011;42970;50.996;3.706;2023-09-12T09:29:08;64.35;;;24.10;;
57093;SDS011;42970;50.996;3.706;2023-09-12T09:31:34;64.40;;;25.92;;
57093;SDS011;42970;50.996;3.706;2023-09-12T09:33:59;69.63;;;24.67;;
57093;SDS011;42970;50.996;3.706;2023-09-12T09:36:27;57.65;;;24.52;;
57093;SDS011;42970;50.996;3.706;2023-09-12T09:38:53;67.22;;;24.75;;
57093;SDS011;42970;50.996;3.706;2023-09-12T09:41:20;61.10;;;24.55;;
57093;SDS011;42970;50.996;3.706;2023-09-12T09:43:49;69.15;;;25.52;;
57093;SDS011;42970;50.996;3.706;2023-09-12T09:46:18;57.83;;;24.05;;
57093;SDS011;42970;50.996;3.706;2023-09-12T09:48:50;66.93;;;25.05;;
57093;SDS011;42970;50.996;3.706;2023-09-12T09:51:17;69.10;;;26.60;;
57093;SDS011;42970;50.996;3.706;2023-09-12T09:53:43;65.82;;;25.05;;
57093;SDS011;42970;50.996;3.706;2023-09-12T09:56:10;62.00;;;23.02;;
57093;SDS011;42970;50.996;3.706;2023-09-12T09:58:57;58.60;;;21.52;;
57093;SDS011;42970;50.996;3.706;2023-09-12T10:01:22;54.15;;;22.58;;
57093;SDS011;42970;50.996;3.706;2023-09-12T10:03:57;49.95;;;21.75;;
57093;SDS011;42970;50.996;3.706;2023-09-12T10:06:28;50.40;;;23.63;;
57093;SDS011;42970;50.996;3.706;2023-09-12T10:08:55;55.35;;;23.90;;
57093;SDS011;42970;50.996;3.706;2023-09-12T10:11:23;55.33;;;22.15;;
57093;SDS011;42970;50.996;3.706;2023-09-12T10:13:53;63.53;;;24.02;;
57093;SDS011;42970;50.996;3.706;2023-09-12T10:16:20;57.55;;;22.38;;
57093;SDS011;42970;50.996;3.706;2023-09-12T10:18:54;41.72;;;18.77;;
57093;SDS011;42970;50.996;3.706;2023-09-12T10:21:27;38.97;;;18.70;;
57093;SDS011;42970;50.996;3.706;2023-09-12T10:23:56;44.17;;;21.05;;
57093;SDS011;42970;50.996;3.706;2023-09-12T10:26:23;45.45;;;20.67;;
57093;SDS011;42970;50.996;3.706;2023-09-12T10:28:49;46.67;;;22.10;;
57093;SDS011;42970;50.996;3.706;2023-09-12T10:31:15;48.42;;;21.63;;
57093;SDS011;42970;50.996;3.706;2023-09-12T10:33:42;46.13;;;20.83;;
57093;SDS011;42970;50.996;3.706;2023-09-12T10:36:09;49.40;;;21.88;;
57093;SDS011;42970;50.996;3.706;2023-09-12T10:38:40;41.00;;;18.77;;
57093;SDS011;42970;50.996;3.706;2023-09-12T10:41:12;45.45;;;21.30;;
57093;SDS011;42970;50.996;3.706;2023-09-12T10:43:42;50.83;;;21.83;;
57093;SDS011;42970;50.996;3.706;2023-09-12T10:46:11;52.47;;;23.02;;
57093;SDS011;42970;50.996;3.706;2023-09-12T10:48:37;43.33;;;20.63;;
57093;SDS011;42970;50.996;3.706;2023-09-12T10:51:05;44.28;;;19.30;;
57093;SDS011;42970;50.996;3.706;2023-09-12T10:53:32;45.78;;;22.10;;
57093;SDS011;42970;50.996;3.706;2023-09-12T10:59:22;50.58;;;23.42;;
57093;SDS011;42970;50.996;3.706;2023-09-12T11:01:41;45.92;;;21.25;;
57093;SDS011;42970;50.996;3.706;2023-09-12T11:06:47;41.92;;;19.02;;
57093;SDS011;42970;50.996;3.706;2023-09-12T11:09:22;38.03;;;18.10;;
57093;SDS011;42970;50.996;3.706;2023-09-12T11:11:59;35.55;;;17.55;;
57093;SDS011;42970;50.996;3.706;2023-09-12T11:14:28;37.47;;;18.17;;
57093;SDS011;42970;50.996;3.706;2023-09-12T11:19:53;33.90;;;16.70;;
57093;SDS011;42970;50.996;3.706;2023-09-12T11:22:28;41.60;;;16.08;;
57093;SDS011;42970;50.996;3.706;2023-09-12T11:24:56;38.92;;;18.02;;
57093;SDS011;42970;50.996;3.706;2023-09-12T11:27:23;33.90;;;16.40;;
57093;SDS011;42970;50.996;3.706;2023-09-12T11:29:50;29.95;;;14.98;;
57093;SDS011;42970;50.996;3.706;2023-09-12T11:32:25;33.47;;;16.63;;
57093;SDS011;42970;50.996;3.706;2023-09-12T11:34:52;35.90;;;18.10;;
57093;SDS011;42970;50.996;3.706;2023-09-12T11:37:25;29.80;;;17.00;;
57093;SDS011;42970;50.996;3.706;2023-09-12T11:39:52;31.45;;;16.13;;
57093;SDS011;42970;50.996;3.706;2023-09-12T11:42:19;33.08;;;16.15;;
57093;SDS011;42970;50.996;3.706;2023-09-12T12:04:35;35.25;;;20.05;;
57093;SDS011;42970;50.996;3.706;2023-09-12T12:07:01;41.00;;;21.75;;
57093;SDS011;42970;50.996;3.706;2023-09-12T12:09:29;38.85;;;21.33;;
57093;SDS011;42970;50.996;3.706;2023-09-12T12:19:12;36.10;;;19.75;;
57093;SDS011;42970;50.996;3.706;2023-09-12T12:21:39;35.97;;;18.27;;
57093;SDS011;42970;50.996;3.706;2023-09-12T12:46:04;32.53;;;17.13;;
57093;SDS011;42970;50.996;3.706;2023-09-12T14:40:46;26.90;;;14.55;;
57093;SDS011;42970;50.996;3.706;2023-09-12T16:51:59;32.92;;;16.83;;
57093;SDS011;42970;50.996;3.706;2023-09-12T16:54:25;31.37;;;17.23;;
57093;SDS011;42970;50.996;3.706;2023-09-12T16:56:50;39.97;;;18.27;;
57093;SDS011;42970;50.996;3.706;2023-09-12T17:04:07;53.00;;;25.20;;
57093;SDS011;42970;50.996;3.706;2023-09-12T17:06:32;47.30;;;23.50;;
57093;SDS011;42970;50.996;3.706;2023-09-12T17:08:59;57.78;;;25.23;;
57093;SDS011;42970;50.996;3.706;2023-09-12T17:11:26;63.38;;;28.13;;
57093;SDS011;42970;50.996;3.706;2023-09-12T17:13:51;50.20;;;25.05;;
57093;SDS011;42970;50.996;3.706;2023-09-12T17:16:17;53.28;;;25.33;;
57093;SDS011;42970;50.996;3.706;2023-09-12T17:18:43;51.20;;;26.13;;
57093;SDS011;42970;50.996;3.706;2023-09-12T17:21:08;52.00;;;24.70;;
57093;SDS011;42970;50.996;3.706;2023-09-12T17:23:34;47.83;;;24.55;;
57093;SDS011;42970;50.996;3.706;2023-09-12T17:25:59;46.37;;;23.90;;
57093;SDS011;42970;50.996;3.706;2023-09-12T17:28:24;44.60;;;23.45;;
57093;SDS011;42970;50.996;3.706;2023-09-12T17:30:50;44.63;;;23.00;;
57093;SDS011;42970;50.996;3.706;2023-09-12T17:33:16;44.20;;;23.25;;
57093;SDS011;42970;50.996;3.706;2023-09-12T17:35:41;42.97;;;22.48;;
57093;SDS011;42970;50.996;3.706;2023-09-12T17:38:07;47.03;;;23.67;;
57093;SDS011;42970;50.996;3.706;2023-09-12T17:40:32;45.92;;;23.83;;
57093;SDS011;42970;50.996;3.706;2023-09-12T17:42:59;44.80;;;23.73;;
57093;SDS011;42970;50.996;3.706;2023-09-12T17:45:24;51.10;;;24.33;;
57093;SDS011;42970;50.996;3.706;2023-09-12T17:47:50;45.67;;;23.02;;
57093;SDS011;42970;50.996;3.706;2023-09-12T17:50:18;43.40;;;23.95;;
57093;SDS011;42970;50.996;3.706;2023-09-12T17:52:43;41.63;;;22.23;;
57093;SDS011;42970;50.996;3.706;2023-09-12T17:55:09;37.67;;;21.75;;
57093;SDS011;42970;50.996;3.706;2023-09-12T17:57:35;40.13;;;22.40;;
57093;SDS011;42970;50.996;3.706;2023-09-12T18:00:01;41.90;;;22.75;;
57093;SDS011;42970;50.996;3.706;2023-09-12T18:02:26;46.35;;;23.10;;
57093;SDS011;42970;50.996;3.706;2023-09-12T18:04:52;43.38;;;22.55;;
57093;SDS011;42970;50.996;3.706;2023-09-12T18:07:17;50.30;;;24.95;;
57093;SDS011;42970;50.996;3.706;2023-09-12T18:09:43;44.83;;;23.67;;
57093;SDS011;42970;50.996;3.706;2023-09-12T18:12:08;48.30;;;25.33;;
57093;SDS011;42970;50.996;3.706;2023-09-12T18:14:34;52.50;;;25.55;;
57093;SDS011;42970;50.996;3.706;2023-09-12T18:16:59;50.80;;;25.73;;
57093;SDS011;42970;50.996;3.706;2023-09-12T18:19:24;50.83;;;26.42;;
57093;SDS011;42970;50.996;3.706;2023-09-12T18:21:50;51.15;;;26.00;;
57093;SDS011;42970;50.996;3.706;2023-09-12T18:24:16;53.58;;;26.15;;
57093;SDS011;42970;50.996;3.706;2023-09-12T18:26:42;50.65;;;23.95;;
57093;SDS011;42970;50.996;3.706;2023-09-12T18:29:08;55.10;;;23.13;;
57093;SDS011;42970;50.996;3.706;2023-09-12T18:31:33;48.28;;;22.67;;
57093;SDS011;42970;50.996;3.706;2023-09-12T18:33:59;47.90;;;22.10;;
57093;SDS011;42970;50.996;3.706;2023-09-12T18:36:24;49.97;;;21.50;;
57093;SDS011;42970;50.996;3.706;2023-09-12T18:38:51;38.60;;;20.85;;
57093;SDS011;42970;50.996;3.706;2023-09-12T18:41:17;38.35;;;20.08;;
57093;SDS011;42970;50.996;3.706;2023-09-12T18:43:43;35.47;;;19.50;;
57093;SDS011;42970;50.996;3.706;2023-09-12T18:46:10;40.72;;;20.65;;
57093;SDS011;42970;50.996;3.706;2023-09-12T18:48:38;34.97;;;20.52;;
57093;SDS011;42970;50.996;3.706;2023-09-12T18:51:05;36.58;;;18.58;;
57093;SDS011;42970;50.996;3.706;2023-09-12T18:53:31;41.75;;;19.90;;
57093;SDS011;42970;50.996;3.706;2023-09-12T18:55:57;42.10;;;19.88;;
57093;SDS011;42970;50.996;3.706;2023-09-12T18:58:22;32.00;;;18.95;;
57093;SDS011;42970;50.996;3.706;2023-09-12T19:00:48;40.20;;;20.15;;
57093;SDS011;42970;50.996;3.706;2023-09-12T19:03:14;41.55;;;19.38;;
57093;SDS011;42970;50.996;3.706;2023-09-12T19:05:40;38.70;;;20.17;;
57093;SDS011;42970;50.996;3.706;2023-09-12T19:08:06;42.45;;;20.88;;
57093;SDS011;42970;50.996;3.706;2023-09-12T19:10:32;37.88;;;20.50;;
57093;SDS011;42970;50.996;3.706;2023-09-12T19:12:57;45.33;;;22.70;;
57093;SDS011;42970;50.996;3.706;2023-09-12T19:15:23;43.92;;;21.08;;
57093;SDS011;42970;50.996;3.706;2023-09-12T19:17:49;37.17;;;20.40;;
57093;SDS011;42970;50.996;3.706;2023-09-12T19:20:14;40.72;;;20.60;;
57093;SDS011;42970;50.996;3.706;2023-09-12T19:22:40;47.97;;;22.80;;
57093;SDS011;42970;50.996;3.706;2023-09-12T19:25:07;41.97;;;21.30;;
57093;SDS011;42970;50.996;3.706;2023-09-12T19:27:34;52.05;;;24.00;;
57093;SDS011;42970;50.996;3.706;2023-09-12T19:30:02;52.70;;;25.52;;
57093;SDS011;42970;50.996;3.706;2023-09-12T19:32:29;45.97;;;23.33;;
57093;SDS011;42970;50.996;3.706;2023-09-12T19:34:57;49.67;;;23.83;;
57093;SDS011;42970;50.996;3.706;2023-09-12T19:37:33;51.40;;;24.95;;
57093;SDS011;42970;50.996;3.706;2023-09-12T19:39:59;45.40;;;23.08;;
57093;SDS011;42970;50.996;3.706;2023-09-12T19:42:25;48.42;;;24.38;;
57093;SDS011;42970;50.996;3.706;2023-09-12T19:44:51;49.90;;;24.83;;
57093;SDS011;42970;50.996;3.706;2023-09-12T19:47:18;52.55;;;24.65;;
57093;SDS011;42970;50.996;3.706;2023-09-12T19:49:44;43.13;;;22.58;;
57093;SDS011;42970;50.996;3.706;2023-09-12T19:52:10;43.25;;;23.45;;
57093;SDS011;42970;50.996;3.706;2023-09-12T19:54:38;50.17;;;23.70;;
57093;SDS011;42970;50.996;3.706;2023-09-12T19:57:04;48.97;;;23.58;;
57093;SDS011;42970;50.996;3.706;2023-09-12T19:59:29;48.13;;;24.58;;
57093;SDS011;42970;50.996;3.706;2023-09-12T20:01:58;54.58;;;25.17;;